Station LIXA2 - Little Island, AK Image indicating link to RSS feed of recent meteorological observations for station LIXA2


Conditions at LIXA2 as of
(4:22 pm AKDT on 05/27/2024)
0022 GMT on 05/28/2024:
     

Click on the graph icon in the table below to see a time series plot of the last five days of that observation.

5-day plot - Wind Direction Wind Direction (WDIR): S ( 170 deg true )
5-day plot - Wind Speed Wind Speed (WSPD): 15 kts
5-day plot - Wind Gust Wind Gust (GST): 18 kts
5-day plot - Air Temperature Air Temperature (ATMP): 50.5 °F
5-day plot - Dew Point Dew Point (DEWP): 44.6 °F
5-day plot - Wind Chill Wind Chill (CHILL): 44.8 °F
5-day plot - Wind Speed at 10 Meters Wind Speed at 10 meters (WSPD10M): 17 kts
5-day plot - Wind Speed at 20 Meters Wind Speed at 20 meters (WSPD20M): 17 kts
5-day plot -  Wind Speed, Wind Gust and Atmospheric Pressure Combined plot of Wind Speed, Gust, and Air Pressure
Previous observations
TIME
(AKDT)
5-day plot - Wind Direction
WDIR
 
5-day plot - Wind Speed
WSPD
kts
5-day plot - Wind Gust
GST
kts
5-day plot - Wave Height
WVHT
ft
5-day plot - Dominant Wave Period
DPD
sec
5-day plot - Average Wave Period
APD
sec
5-day plot - Mean Wave Direction
MWD
 
5-day plot - Atmospheric Pressure
PRES
in
5-day plot - Pressure Tendency
PTDY
in
5-day plot - Air Temperature
ATMP
°F
5-day plot - Water Temperature
WTMP
°F
5-day plot - Dew Point
DEWP
°F
5-day plot - Salinity
SAL
psu
5-day plot - Visibility
VIS
nmi
5-day plot - Tide (above MLLW)
TIDE
ft
2024-05-27 04:12 pm S 14 18------ 50.9- 44.4---
2024-05-27 03:52 pm S 10 13------ 51.8- 45.3---
2024-05-27 03:42 pm S 11 14------ 51.6- 44.8---
2024-05-27 03:32 pm S 12 15------ 51.3- 45.0---
2024-05-27 03:22 pm S 8 13------ 52.7- 46.2---
2024-05-27 03:12 pmSSW 6 9------ 53.2- 46.2---
2024-05-27 03:02 pmSSW 7 10------ 53.2- 46.0---
2024-05-27 02:52 pm S 9 14------ 52.9- 45.3---
2024-05-27 02:43 pm S 10 14------ 52.9- 44.4---
2024-05-27 02:32 pm S 8 13------ 52.9- 45.9---
2024-05-27 02:22 pm S 8 11------ 53.4- 45.7---
2024-05-27 02:12 pm S 7 9------ 53.4- 43.0---
2024-05-27 02:02 pm S 6 10------ 54.0- 43.5---
2024-05-27 01:52 pm S 3 7------ 53.6- 42.4---
2024-05-27 01:42 pm S 3 5------ 54.1- 43.3---
2024-05-27 01:32 pmSSW 4 6------ 53.8- 44.2---
2024-05-27 01:22 pm SW 4 7------ 55.2- 45.3---
2024-05-27 01:12 pm SW 4 7------ 53.6- 45.3---
2024-05-27 01:02 pmSSW 6 9------ 53.1- 44.4---
2024-05-27 12:52 pmSSW 6 10------ 52.3- 44.1---
2024-05-27 12:42 pmSSW 6 9------ 52.5- 43.5---
2024-05-27 12:32 pm SW 7 10------ 53.2- 43.7---
2024-05-27 12:22 pm SW 7 11------ 53.4- 43.9---
2024-05-27 12:12 pmSSW 7 11------ 52.3- 43.3---
2024-05-27 12:02 pm SW 7 12------ 52.3- 44.4---
2024-05-27 11:52 amSSW 6 10------ 53.2- 45.3---
2024-05-27 11:42 amSSW 6 11------ 52.7- 43.9---
2024-05-27 11:32 am S 8 12------ 52.0- 43.7---
2024-05-27 11:22 am S 7 12------ 52.5- 44.4---
2024-05-27 11:12 am S 5 10------ 53.1- 45.7---
2024-05-27 11:02 amSSW 6 9------ 52.0- 45.0---
2024-05-27 10:52 amSSW 6 9------ 51.8- 44.2---
2024-05-27 10:42 am S 8 11------ 51.3- 43.5---
2024-05-27 10:32 amSSW 7 11------ 51.3- 44.1---
2024-05-27 10:22 amSSW 6 10------ 51.1- 43.9---
2024-05-27 10:12 amSSW 7 10------ 50.5- 43.7---
2024-05-27 10:02 amSSW 7 9------ 50.0- 43.5---
2024-05-27 09:52 amSSW 6 9------ 49.6- 43.2---
2024-05-27 09:42 amSSW 6 10------ 49.8- 43.5---
2024-05-27 09:32 amSSW 5 8------ 49.6- 43.7---
2024-05-27 09:22 amSSW 5 9------ 49.3- 43.3---
2024-05-27 09:12 am S 6 9------ 49.1- 43.0---
2024-05-27 09:02 am S 7 10------ 48.4- 42.6---
2024-05-27 08:52 am S 7 10------ 48.2- 42.6---
2024-05-27 08:42 am S 8 10------ 48.0- 42.6---
2024-05-27 08:32 am S 7 10------ 47.8- 42.6---
2024-05-27 08:22 am S 7 10------ 47.7- 42.6---
2024-05-27 08:12 am S 7 11------ 47.8- 42.6---
2024-05-27 08:02 am S 6 9------ 47.7- 42.8---
2024-05-27 07:52 am S 7 11------ 47.5- 42.8---
2024-05-27 07:42 am S 7 10------ 47.1- 42.8---
2024-05-27 07:32 amSSW 6 9------ 46.9- 43.0---
2024-05-27 07:22 amSSW 6 8------ 46.9- 43.0---
2024-05-27 07:12 am S 6 8------ 46.9- 43.0---
2024-05-27 07:02 am S 6 8------ 47.1- 43.2---
2024-05-27 06:52 am S 6 8------ 46.8- 42.8---
2024-05-27 06:42 am S 6 8------ 46.8- 43.2---
2024-05-27 06:32 am S 6 7------ 46.6- 43.0---
2024-05-27 06:22 am S 6 8------ 46.6- 43.0---
2024-05-27 06:12 am S 8 11------ 46.8- 43.2---
2024-05-27 06:02 am S 10 12------ 46.6- 42.6---
2024-05-27 05:52 am S 9 12------ 46.6- 42.6---
2024-05-27 05:42 am S 7 10------ 46.4- 42.8---
2024-05-27 05:32 am S 8 10------ 46.4- 42.8---
2024-05-27 05:22 amSSW 8 10------ 46.4- 42.8---
2024-05-27 05:12 amSSW 8 11------ 46.4- 42.8---
2024-05-27 05:02 amSSW 9 12------ 46.6- 42.6---
2024-05-27 04:52 amSSW 9 12------ 46.6- 42.4---
2024-05-27 04:42 am S 10 13------ 46.6- 42.4---
2024-05-27 04:32 am S 10 13------ 46.6- 42.4---
2024-05-27 04:22 am S 8 11------ 46.4- 42.3---
2024-05-27 04:12 amSSE 7 12------ 46.4- 42.6---
2024-05-27 04:02 am S 5 8------ 46.6- 43.2---
2024-05-27 03:52 amSSW 7 11------ 46.6- 43.2---
2024-05-27 03:42 am S 7 11------ 46.6- 43.3---
2024-05-27 03:32 am S 8 11------ 46.8- 43.5---
2024-05-27 03:22 am S 7 10------ 46.8- 43.3---
2024-05-27 03:12 am S 7 10------ 46.8- 43.2---
2024-05-27 03:02 amSSE 8 10------ 46.8- 43.2---
2024-05-27 02:52 amSSE 7 11------ 46.8- 43.2---
2024-05-27 02:42 am S 9 14------ 46.8- 43.5---
2024-05-27 02:32 am S 8 13------ 46.8- 43.5---
2024-05-27 02:22 amSSE 6 11------ 46.9- 43.2---
2024-05-27 02:12 amSSE 3 5------ 46.8- 42.6---
2024-05-27 02:02 amSSE 3 4------ 46.4- 42.4---
2024-05-27 01:52 amSSW 2 3------ 46.2- 42.3---
2024-05-27 01:42 amWSW 2 4------ 46.4- 42.4---
2024-05-27 01:32 amWNW 2 3------ 46.4- 42.4---
2024-05-27 01:22 am NW 2 4------ 46.2- 42.3---
2024-05-27 01:12 am NW 3 5------ 46.0- 42.1---
2024-05-27 01:02 amWNW 3 5------ 45.9- 42.3---
2024-05-27 12:52 amWNW 3 6------ 46.2- 42.6---
2024-05-27 12:42 amWNW 3 5------ 46.2- 42.6---
2024-05-27 12:32 amWNW 4 7------ 46.2- 42.6---
2024-05-27 12:22 amWNW 3 6------ 46.8- 43.0---
2024-05-27 12:12 am W 3 5------ 46.8- 42.4---
2024-05-27 12:02 amWNW 3 5------ 47.5- 43.2---
2024-05-26 11:52 pm NW 3 4------ 48.0- 43.3---
2024-05-26 11:42 pmNNW 2 3------ 48.2- 43.3---
2024-05-26 11:32 pm W 2 5------ 47.7- 43.0---
2024-05-26 11:22 pmWSW 3 6------ 48.0- 43.0---
2024-05-26 11:12 pm SE 4 5------ 48.4- 43.3---
2024-05-26 11:02 pm SE 4 6------ 48.6- 43.7---
2024-05-26 10:52 pm SE 5 6------ 48.7- 43.7---
2024-05-26 10:42 pmESE 4 5------ 48.6- 43.5---
2024-05-26 10:32 pm E 5 7------ 48.6- 43.7---
2024-05-26 10:22 pm E 4 6------ 48.2- 43.5---
2024-05-26 10:12 pmENE 5 7------ 48.4- 43.7---
2024-05-26 10:02 pmENE 5 7------ 48.6- 43.7---
2024-05-26 09:52 pm E 4 6------ 49.1- 43.3---
2024-05-26 09:42 pmENE 5 8------ 48.9- 43.3---
2024-05-26 09:32 pmENE 4 7------ 49.5- 43.2---
2024-05-26 09:22 pm SE 3 4------ 49.3- 43.3---
2024-05-26 09:12 pmSSW 4 6------ 49.3- 43.5---
2024-05-26 09:02 pm SW 5 7------ 49.6- 43.7---
2024-05-26 08:52 pm SW 6 8------ 49.5- 43.9---
2024-05-26 08:42 pm SW 6 7------ 49.6- 43.9---
2024-05-26 08:32 pm SW 5 7------ 49.3- 44.2---
2024-05-26 08:22 pm SW 5 7------ 48.7- 43.9---
2024-05-26 08:12 pm SW 5 7------ 48.6- 43.9---
2024-05-26 08:02 pmSSW 4 6------ 48.7- 43.9---
2024-05-26 07:52 pmSSW 4 6------ 48.9- 44.2---
2024-05-26 07:42 pmSSW 4 6------ 48.7- 44.2---
2024-05-26 07:32 pmSSW 4 6------ 48.7- 44.1---
2024-05-26 07:22 pmSSW 5 7------ 48.7- 44.1---
2024-05-26 07:12 pmSSW 6 8------ 49.1- 44.1---
2024-05-26 07:02 pm S 7 9------ 49.6- 43.7---
2024-05-26 06:52 pm S 6 9------ 50.4- 43.9---
2024-05-26 06:42 pmSSE 7 9------ 50.4- 43.7---
2024-05-26 06:32 pmSSE 7 10------ 50.2- 43.9---
2024-05-26 06:22 pm S 9 11------ 50.2- 43.7---
2024-05-26 06:12 pm S 7 12------ 49.6- 43.7---
2024-05-26 06:02 pm S 7 9------ 48.4- 43.7---
2024-05-26 05:52 pm S 7 9------ 48.0- 43.3---
2024-05-26 05:42 pm S 8 11------ 48.0- 43.3---
2024-05-26 05:22 pm S 10 13------ 48.2- 43.3---
2024-05-26 05:12 pm S 10 13------ 48.4- 43.3---
2024-05-26 05:02 pm S 10 14------ 48.9- 43.5---
2024-05-26 04:52 pm S 10 15------ 49.3- 43.2---
2024-05-26 04:42 pm S 11 15------ 48.6- 43.2---
2024-05-26 04:32 pm S 12 15------ 47.8- 43.3---
2024-05-26 04:22 pm S 12 19------ 48.7- 43.5---
2024-05-26 04:12 pm S 9 13------ 49.3- 43.7---
2024-05-26 03:52 pm S 13 20------ 48.2- 43.0---